Terminal Aerodrome Forecast
Issued by NWS Tulsa, OK

Current Version | Previous Version | Text Only | Print | Product List | Glossary On
Versions: 1 2 3 4 5 6 7 8 9 10 11 12 13 14 15 16
000
FTUS44 KTSA 231700
TAFFSM
TAF
KFSM 231720Z 2318/2418 08006KT P6SM BKN080
      TEMPO 2319/2322 5SM -SHRA BR BKN030
     FM240000 VRB02KT P6SM SCT050
     FM240800 VRB02KT 4SM BR SCT050
     FM241400 VRB04KT P6SM SKC=

USA.gov is the U.S. government's official web portal to all federal, state and local government web resources and services.